createdAt,value
2019-06-10T00:00:31.730Z,7.65
2019-06-10T00:02:35.712Z,6.85
2019-06-10T00:04:41.598Z,6.62
2019-06-10T00:06:45.826Z,6.62
2019-06-10T00:08:50.629Z,7.28
2019-06-10T00:10:56.201Z,4.75
2019-06-10T00:13:02.106Z,5.83
2019-06-10T00:15:10.917Z,5.37
2019-06-10T00:17:14.909Z,6.67
2019-06-10T00:19:21.649Z,4.90
2019-06-10T00:21:25.473Z,7.60
2019-06-10T00:23:31.522Z,8.90
2019-06-10T00:25:35.489Z,6.60
2019-06-10T00:27:41.896Z,10.08
2019-06-10T00:29:45.054Z,10.20
2019-06-10T00:31:55.602Z,5.45
2019-06-10T00:34:02.944Z,5.70
2019-06-10T00:36:07.059Z,5.85
2019-06-10T00:38:13.814Z,7.58
2019-06-10T00:40:16.366Z,6.75
2019-06-10T00:42:21.438Z,6.17
2019-06-10T00:44:25.689Z,4.87
2019-06-10T00:46:31.552Z,8.00
2019-06-10T00:48:35.063Z,7.30
2019-06-10T00:50:41.129Z,6.03
2019-06-10T00:52:45.386Z,6.92
2019-06-10T00:54:51.727Z,9.38
2019-06-10T00:56:54.992Z,5.70
2019-06-10T00:59:01.037Z,8.03
2019-06-10T01:03:33.212Z,7.40
2019-06-10T01:05:37.217Z,5.20
2019-06-10T01:07:41.526Z,5.55
2019-06-10T01:09:45.640Z,5.37
2019-06-10T01:11:51.654Z,10.60
2019-06-10T01:13:55.029Z,5.97
2019-06-10T01:15:58.898Z,6.03
2019-06-10T01:18:03.491Z,5.37
2019-06-10T01:20:09.853Z,6.92
2019-06-10T01:22:15.460Z,6.78
2019-06-10T01:24:22.099Z,9.63
2019-06-10T01:26:25.351Z,7.17
2019-06-10T01:28:31.185Z,6.10
2019-06-10T01:30:34.743Z,6.60
2019-06-10T01:32:38.578Z,6.67
2019-06-10T01:34:42.444Z,5.10
2019-06-10T01:36:46.342Z,6.05
2019-06-10T01:38:51.195Z,6.92
2019-06-10T01:40:55.483Z,6.67
2019-06-10T01:43:01.080Z,6.72
2019-06-10T01:45:06.876Z,6.97
2019-06-10T01:47:11.802Z,5.62
2019-06-10T01:49:17.758Z,5.75
2019-06-10T01:51:21.996Z,6.67
2019-06-10T01:53:25.869Z,6.25
2019-06-10T01:55:31.176Z,7.15
2019-06-10T01:57:35.102Z,6.45
2019-06-10T01:59:41.183Z,7.60
2019-06-10T02:01:52.455Z,6.83
2019-06-10T02:03:56.368Z,8.03
2019-06-10T02:06:01.398Z,7.83
2019-06-10T02:08:05.608Z,7.92
2019-06-10T02:10:12.425Z,8.60
2019-06-10T02:12:18.786Z,7.87
2019-06-10T02:14:24.151Z,6.55
2019-06-10T02:16:27.574Z,7.87
2019-06-10T02:18:32.229Z,5.95
2019-06-10T02:20:36.666Z,9.80
2019-06-10T02:22:41.806Z,5.95
2019-06-10T02:24:45.863Z,8.40
2019-06-10T02:26:51.639Z,6.80
2019-06-10T02:28:55.512Z,7.00
2019-06-10T02:31:02.526Z,7.37
2019-06-10T02:33:05.068Z,8.13
2019-06-10T02:35:15.455Z,7.28
2019-06-10T02:37:19.441Z,6.15
2019-06-10T02:39:28.040Z,6.95
2019-06-10T02:41:35.347Z,9.08
2019-06-10T02:43:38.028Z,6.78
2019-06-10T02:45:44.462Z,9.25
2019-06-10T02:47:47.703Z,8.03
2019-06-10T02:50:01.607Z,9.30
2019-06-10T02:51:57.565Z,9.65
2019-06-10T02:54:04.462Z,9.00
2019-06-10T02:56:08.714Z,9.85
2019-06-10T02:58:13.788Z,10.05
2019-06-10T03:00:29.491Z,8.35
2019-06-10T03:02:30.045Z,9.58
2019-06-10T03:04:32.612Z,11.65
2019-06-10T03:06:39.824Z,11.00
2019-06-10T03:08:43.396Z,10.58
2019-06-10T03:10:45.910Z,10.08
2019-06-10T03:12:49.721Z,12.35
2019-06-10T03:14:53.828Z,9.58
2019-06-10T03:16:59.327Z,10.45
2019-06-10T03:19:03.188Z,13.00
2019-06-10T03:21:07.240Z,11.97
2019-06-10T03:23:12.040Z,9.95
2019-06-10T03:25:16.273Z,11.03
2019-06-10T03:27:21.143Z,10.60
2019-06-10T03:29:26.902Z,16.10
2019-06-10T03:31:40.905Z,11.68
2019-06-10T03:33:42.011Z,15.70
2019-06-10T03:35:42.812Z,11.28
2019-06-10T03:37:46.746Z,11.45
2019-06-10T03:39:52.994Z,10.28
2019-06-10T03:41:56.332Z,15.70
2019-06-10T03:44:02.410Z,25.00
2019-06-10T03:46:05.884Z,13.85
2019-06-10T03:48:24.129Z,13.55
2019-06-10T03:50:28.701Z,12.70
2019-06-10T03:52:32.792Z,12.82
2019-06-10T03:54:36.860Z,21.52
2019-06-10T03:56:42.882Z,17.17
2019-06-10T03:58:46.354Z,13.28
2019-06-10T04:00:52.218Z,15.15
2019-06-10T04:02:58.465Z,17.02
2019-06-10T04:05:02.852Z,13.20
2019-06-10T04:07:06.804Z,15.75
2019-06-10T04:09:12.115Z,20.32
2019-06-10T04:11:17.236Z,14.45
2019-06-10T04:13:23.974Z,16.70
2019-06-10T04:15:29.242Z,16.20
2019-06-10T04:17:33.297Z,18.57
2019-06-10T04:19:37.444Z,21.37
2019-06-10T04:21:43.239Z,20.95
2019-06-10T04:23:47.199Z,18.25
2019-06-10T04:25:52.698Z,21.37
2019-06-10T04:27:56.968Z,21.65
2019-06-10T04:30:03.091Z,23.00
2019-06-10T04:32:06.507Z,21.48
2019-06-10T04:34:12.446Z,26.35
2019-06-10T04:36:15.938Z,24.27
2019-06-10T04:38:20.984Z,22.65
2019-06-10T04:40:27.502Z,24.15
2019-06-10T04:42:32.981Z,34.03
2019-06-10T04:44:36.632Z,23.15
2019-06-10T04:46:42.611Z,28.15
2019-06-10T04:48:46.102Z,23.20
2019-06-10T04:50:50.086Z,23.60
2019-06-10T04:52:53.960Z,22.40
2019-06-10T04:54:58.531Z,24.77
2019-06-10T04:57:02.490Z,27.22
2019-06-10T04:59:06.593Z,25.35
2019-06-10T05:01:12.120Z,23.05
2019-06-10T05:03:16.247Z,23.52
2019-06-10T05:05:39.401Z,26.27
2019-06-10T05:07:43.308Z,31.77
2019-06-10T05:09:47.316Z,28.17
2019-06-10T05:11:52.219Z,28.80
2019-06-10T05:13:56.356Z,27.75
2019-06-10T05:16:00.362Z,26.48
2019-06-10T05:18:04.472Z,27.70
2019-06-10T05:20:08.751Z,30.17
2019-06-10T05:22:12.649Z,28.15
2019-06-10T05:24:16.702Z,27.73
2019-06-10T05:26:25.070Z,28.27
2019-06-10T05:28:27.501Z,28.00
2019-06-10T05:30:34.110Z,25.68
2019-06-10T05:32:38.260Z,26.35
2019-06-10T05:34:43.682Z,28.65
2019-06-10T05:36:47.936Z,28.38
2019-06-10T05:38:52.648Z,25.10
2019-06-10T05:40:56.983Z,27.10
2019-06-10T05:43:02.456Z,27.87
2019-06-10T05:45:08.145Z,26.93
2019-06-10T05:47:12.626Z,24.10
2019-06-10T05:49:16.784Z,26.85
2019-06-10T05:51:22.672Z,26.65
2019-06-10T05:53:27.635Z,29.82
2019-06-10T05:55:34.842Z,27.27
2019-06-10T05:57:38.176Z,27.00
2019-06-10T05:59:45.087Z,26.68
2019-06-10T06:01:48.977Z,29.57
2019-06-10T06:03:53.223Z,26.65
2019-06-10T06:05:57.376Z,28.30
2019-06-10T06:08:05.704Z,35.68
2019-06-10T06:10:08.326Z,26.95
2019-06-10T06:12:14.233Z,28.00
2019-06-10T06:14:17.870Z,26.05
2019-06-10T06:16:26.087Z,25.90
2019-06-10T06:18:30.028Z,25.55
2019-06-10T06:20:35.883Z,25.08
2019-06-10T06:22:39.636Z,25.05
2019-06-10T06:24:43.744Z,24.52
2019-06-10T06:26:47.957Z,24.72
2019-06-10T06:28:53.460Z,24.87
2019-06-10T06:30:57.509Z,28.95
2019-06-10T06:33:02.903Z,24.10
2019-06-10T06:35:07.164Z,26.17
2019-06-10T06:37:12.728Z,22.13
2019-06-10T06:39:16.568Z,22.50
2019-06-10T06:41:22.598Z,25.97
2019-06-10T06:43:29.931Z,23.27
2019-06-10T06:45:34.057Z,26.82
2019-06-10T06:47:43.739Z,24.02
2019-06-10T06:49:47.748Z,22.22
2019-06-10T06:51:56.243Z,22.22
2019-06-10T06:53:57.202Z,21.77
2019-06-10T06:56:03.594Z,20.60
2019-06-10T06:58:12.559Z,22.98
2019-06-10T07:00:40.837Z,20.35
2019-06-10T07:02:23.299Z,25.32
2019-06-10T07:04:27.114Z,20.82
2019-06-10T07:06:33.804Z,24.18
2019-06-10T07:08:41.467Z,23.25
2019-06-10T07:10:44.963Z,21.95
2019-06-10T07:12:52.333Z,19.87
2019-06-10T07:14:56.340Z,19.90
2019-06-10T07:17:03.747Z,19.17
2019-06-10T07:19:05.884Z,20.52
2019-06-10T07:21:09.735Z,22.48
2019-06-10T07:23:13.623Z,20.12
2019-06-10T07:25:17.581Z,20.77
2019-06-10T07:27:22.577Z,20.70
2019-06-10T07:29:26.592Z,20.57
2019-06-10T07:31:33.779Z,19.23
2019-06-10T07:33:38.984Z,20.55
2019-06-10T07:35:45.319Z,17.87
2019-06-10T07:37:49.328Z,18.82
2019-06-10T07:39:53.273Z,21.42
2019-06-10T07:41:57.441Z,19.27
2019-06-10T07:44:03.052Z,19.95
2019-06-10T07:46:07.149Z,20.35
2019-06-10T07:48:12.189Z,20.72
2019-06-10T07:50:16.846Z,20.23
2019-06-10T07:52:23.290Z,18.75
2019-06-10T07:54:29.221Z,22.02
2019-06-10T07:56:38.903Z,20.27
2019-06-10T07:58:46.968Z,19.57
2019-06-10T08:00:48.490Z,22.98
2019-06-10T08:02:53.075Z,19.00
2019-06-10T08:04:57.142Z,19.23
2019-06-10T08:07:05.349Z,18.25
2019-06-10T08:09:09.362Z,19.85
2019-06-10T08:11:13.957Z,18.20
2019-06-10T08:13:18.400Z,21.97
2019-06-10T08:15:23.032Z,19.98
2019-06-10T08:17:27.229Z,20.20
2019-06-10T08:19:35.791Z,17.60
2019-06-10T08:21:40.681Z,17.50
2019-06-10T08:23:50.576Z,17.82
2019-06-10T08:25:57.712Z,18.45
2019-06-10T08:28:02.984Z,18.82
2019-06-10T08:30:18.608Z,19.32
2019-06-10T08:32:16.115Z,21.77
2019-06-10T08:34:22.087Z,19.52
2019-06-10T08:36:25.500Z,18.32
2019-06-10T08:38:29.348Z,17.65
2019-06-10T08:40:33.343Z,18.07
2019-06-10T08:42:38.995Z,17.50
2019-06-10T08:44:43.955Z,16.87
2019-06-10T08:46:52.467Z,16.17
2019-06-10T08:48:56.568Z,16.37
2019-06-10T08:51:03.247Z,15.85
2019-06-10T08:53:14.335Z,15.55
2019-06-10T08:55:12.564Z,16.12
2019-06-10T08:57:16.738Z,17.07
2019-06-10T08:59:22.574Z,18.57
2019-06-10T09:01:26.142Z,16.23
2019-06-10T09:03:32.266Z,16.17
2019-06-10T09:05:35.689Z,14.68
2019-06-10T09:07:41.421Z,15.48
2019-06-10T09:09:48.329Z,15.63
2019-06-10T09:11:51.966Z,15.93
2019-06-10T09:13:56.380Z,16.12
2019-06-10T09:16:14.598Z,17.25
2019-06-10T09:18:06.045Z,18.12
2019-06-10T09:20:13.021Z,14.47
2019-06-10T09:22:20.447Z,14.95
2019-06-10T09:24:24.347Z,13.75
2019-06-10T09:26:33.489Z,17.00
2019-06-10T09:28:35.957Z,13.30
2019-06-10T09:30:41.653Z,13.55
2019-06-10T09:32:48.451Z,14.07
2019-06-10T09:34:55.848Z,19.57
2019-06-10T09:36:57.092Z,13.35
2019-06-10T09:39:03.939Z,14.18
2019-06-10T09:41:07.455Z,13.60
2019-06-10T09:43:12.851Z,13.43
2019-06-10T09:45:17.691Z,14.00
2019-06-10T09:47:22.803Z,12.78
2019-06-10T09:49:27.210Z,12.68
2019-06-10T09:51:32.411Z,13.25
2019-06-10T09:53:42.802Z,12.35
2019-06-10T09:55:46.094Z,12.33
2019-06-10T09:57:53.173Z,12.23
2019-06-10T09:59:56.304Z,13.78
2019-06-10T10:02:02.865Z,13.68
2019-06-10T10:04:05.243Z,15.10
2019-06-10T10:06:15.307Z,11.97
2019-06-10T10:08:15.098Z,13.78
2019-06-10T10:10:24.005Z,14.07
2019-06-10T10:12:27.424Z,16.65
2019-06-10T10:14:33.471Z,12.43
2019-06-10T10:16:36.935Z,16.97
2019-06-10T10:18:45.872Z,13.75
2019-06-10T10:20:49.064Z,15.48
2019-06-10T10:22:55.366Z,13.83
2019-06-10T10:24:57.464Z,13.95
2019-06-10T10:27:04.969Z,13.32
2019-06-10T10:29:07.163Z,12.98
2019-06-10T10:31:13.145Z,11.93
2019-06-10T10:33:16.670Z,12.45
2019-06-10T10:35:21.433Z,13.08
2019-06-10T10:37:25.494Z,13.10
2019-06-10T10:39:29.439Z,11.93
2019-06-10T10:41:33.314Z,14.40
2019-06-10T10:43:38.017Z,12.73
2019-06-10T10:45:49.072Z,12.58
2019-06-10T10:47:52.603Z,12.73
2019-06-10T10:49:59.060Z,14.73
2019-06-10T10:52:02.985Z,11.73
2019-06-10T10:54:24.698Z,13.38
2019-06-10T10:56:14.410Z,15.83
2019-06-10T10:58:18.508Z,12.15
2019-06-10T11:00:24.153Z,11.63
2019-06-10T11:02:28.058Z,13.55
2019-06-10T11:04:36.577Z,16.82
2019-06-10T11:06:42.965Z,12.78
2019-06-10T11:08:48.352Z,12.58
2019-06-10T11:10:57.737Z,11.70
2019-06-10T11:12:59.397Z,15.75
2019-06-10T11:15:05.738Z,15.95
2019-06-10T11:17:09.660Z,12.23
2019-06-10T11:19:13.626Z,12.10
2019-06-10T11:21:17.499Z,12.93
2019-06-10T11:23:22.835Z,12.05
2019-06-10T11:25:27.263Z,13.50
2019-06-10T11:27:33.153Z,14.18
2019-06-10T11:29:36.665Z,11.90
2019-06-10T11:31:42.554Z,15.45
2019-06-10T11:33:46.920Z,12.65
2019-06-10T11:35:53.568Z,13.03
2019-06-10T11:37:56.999Z,11.93
2019-06-10T11:40:02.855Z,15.83
2019-06-10T11:42:06.999Z,13.83
2019-06-10T11:44:10.896Z,10.98
2019-06-10T11:46:14.781Z,11.38
2019-06-10T11:48:18.743Z,11.05
2019-06-10T11:50:23.335Z,10.93
2019-06-10T11:52:27.500Z,15.08
2019-06-10T11:54:34.164Z,13.00
2019-06-10T11:56:36.907Z,13.80
2019-06-10T11:58:42.550Z,10.38
2019-06-10T12:00:46.299Z,15.30
2019-06-10T12:02:50.905Z,12.80
2019-06-10T12:04:57.102Z,12.37
2019-06-10T12:07:02.354Z,18.17
2019-06-10T12:09:08.853Z,13.05
2019-06-10T12:11:13.052Z,11.15
2019-06-10T12:13:17.129Z,17.45
2019-06-10T12:15:22.705Z,10.95
2019-06-10T12:17:41.894Z,23.12
2019-06-10T12:19:34.122Z,12.15
2019-06-10T12:21:38.236Z,12.80
2019-06-10T12:23:43.511Z,10.78
2019-06-10T12:25:48.197Z,11.33
2019-06-10T12:27:55.871Z,12.25
2019-06-10T12:29:58.575Z,11.05
2019-06-10T12:32:07.219Z,12.03
2019-06-10T12:34:08.904Z,11.08
2019-06-10T12:36:13.037Z,11.63
2019-06-10T12:38:17.004Z,12.40
2019-06-10T12:40:22.656Z,9.95
2019-06-10T12:42:28.152Z,10.50
2019-06-10T12:44:33.708Z,11.70
2019-06-10T12:46:37.777Z,12.28
2019-06-10T12:48:43.784Z,14.35
2019-06-10T12:50:47.896Z,11.70
2019-06-10T12:52:53.028Z,11.88
2019-06-10T12:54:57.607Z,10.00
2019-06-10T12:57:04.771Z,13.53
2019-06-10T12:59:09.969Z,9.73
2019-06-10T13:01:13.358Z,10.35
2019-06-10T13:03:17.902Z,9.08
2019-06-10T13:05:22.872Z,11.15
2019-06-10T13:07:27.305Z,13.65
2019-06-10T13:09:32.576Z,9.20
2019-06-10T13:11:36.651Z,9.00
2019-06-10T13:13:42.602Z,9.35
2019-06-10T13:15:46.130Z,8.95
2019-06-10T13:17:53.658Z,10.93
2019-06-10T13:19:59.147Z,9.60
2019-06-10T13:22:06.975Z,10.08
2019-06-10T13:24:12.928Z,9.55
2019-06-10T13:26:17.823Z,9.55
2019-06-10T13:28:22.388Z,8.98
2019-06-10T13:30:27.845Z,10.53
2019-06-10T13:32:32.490Z,9.18
2019-06-10T13:34:36.529Z,13.00
2019-06-10T13:36:42.240Z,10.70
2019-06-10T13:38:46.049Z,10.32
2019-06-10T13:40:49.904Z,11.22
2019-06-10T13:42:54.089Z,10.90
2019-06-10T13:44:58.027Z,8.28
2019-06-10T13:47:05.199Z,9.95
2019-06-10T13:49:10.732Z,8.83
2019-06-10T13:51:15.541Z,8.30
2019-06-10T13:53:18.577Z,8.60
2019-06-10T13:55:22.612Z,8.70
2019-06-10T13:57:26.992Z,8.68
2019-06-10T13:59:30.989Z,12.78
2019-06-10T14:01:35.113Z,9.03
2019-06-10T14:03:39.084Z,9.88
2019-06-10T14:05:44.850Z,9.80
2019-06-10T14:07:48.860Z,10.05
2019-06-10T14:09:52.796Z,13.30
2019-06-10T14:11:56.670Z,10.45
2019-06-10T14:14:01.379Z,8.43
2019-06-10T14:16:07.462Z,8.48
2019-06-10T14:18:15.065Z,8.88
2019-06-10T14:20:17.759Z,9.23
2019-06-10T14:22:23.024Z,9.05
2019-06-10T14:24:27.198Z,11.18
2019-06-10T14:26:45.949Z,10.43
2019-06-10T14:28:54.086Z,10.98
2019-06-10T14:30:58.100Z,8.23
2019-06-10T14:33:14.292Z,10.45
2019-06-10T14:35:17.734Z,8.43
2019-06-10T14:37:35.102Z,11.63
2019-06-10T14:40:25.194Z,9.90
2019-06-10T14:42:35.975Z,8.85
2019-06-10T14:46:43.103Z,12.33
2019-06-10T14:48:46.987Z,12.55
2019-06-10T14:50:58.547Z,9.98
2019-06-10T14:53:03.148Z,12.05
2019-06-10T14:55:23.216Z,9.18
2019-06-10T14:57:27.309Z,9.18
2019-06-10T15:07:17.226Z,9.55
2019-06-10T15:09:22.767Z,10.63
2019-06-10T15:11:27.603Z,10.63
2019-06-10T15:13:32.760Z,10.30
2019-06-10T15:15:36.808Z,12.33
2019-06-10T15:17:42.990Z,10.75
2019-06-10T15:19:46.214Z,10.43
2019-06-10T15:21:58.307Z,14.93
2019-06-10T15:24:03.048Z,12.63
2019-06-10T15:26:07.981Z,12.43
2019-06-10T15:28:33.389Z,13.05
2019-06-10T15:30:37.299Z,10.55
2019-06-10T15:32:42.845Z,11.60
2019-06-10T15:34:54.202Z,9.68
2019-06-10T15:36:58.098Z,12.03
2019-06-10T15:39:02.100Z,10.03
2019-06-10T15:41:09.294Z,13.65
2019-06-10T15:43:13.824Z,11.35
2019-06-10T15:45:19.511Z,12.63
2019-06-10T15:47:26.262Z,13.22
2019-06-10T15:51:58.557Z,10.40
2019-06-10T15:54:17.057Z,13.38
2019-06-10T15:56:35.876Z,9.68
2019-06-10T15:58:26.156Z,9.70
2019-06-10T16:00:39.219Z,10.53
2019-06-10T16:02:55.467Z,9.43
2019-06-10T16:04:59.411Z,8.88
2019-06-10T16:07:04.354Z,13.70
2019-06-10T16:09:20.261Z,9.48
2019-06-10T16:11:26.444Z,9.80
2019-06-10T16:13:32.265Z,12.18
2019-06-10T16:15:37.246Z,12.60
2019-06-10T16:17:43.084Z,12.40
2019-06-10T16:19:52.799Z,13.08
2019-06-10T16:21:58.232Z,11.40
2019-06-10T16:24:02.757Z,11.40
2019-06-10T16:26:06.947Z,13.10
2019-06-10T16:28:23.027Z,15.23
2019-06-10T16:30:26.075Z,12.33
2019-06-10T16:32:30.100Z,11.95
2019-06-10T16:34:33.968Z,12.63
2019-06-10T16:36:37.849Z,12.05
2019-06-10T16:38:42.276Z,11.25
2019-06-10T16:40:46.387Z,13.68
2019-06-10T16:42:50.286Z,10.80
2019-06-10T16:44:54.237Z,15.95
2019-06-10T16:46:58.123Z,15.08
2019-06-10T16:49:03.216Z,12.68
2019-06-10T16:51:08.730Z,13.83
2019-06-10T16:53:13.642Z,12.37
2019-06-10T16:55:17.885Z,15.70
2019-06-10T16:57:23.890Z,15.45
2019-06-10T16:59:27.651Z,15.23
2019-06-10T17:01:33.195Z,16.82
2019-06-10T17:03:37.498Z,15.88
2019-06-10T17:05:42.580Z,11.88
2019-06-10T17:07:46.860Z,12.88
2019-06-10T17:09:52.627Z,12.50
2019-06-10T17:11:56.859Z,11.18
2019-06-10T17:14:02.955Z,11.95
2019-06-10T17:16:06.603Z,11.28
2019-06-10T17:18:12.944Z,14.70
2019-06-10T17:20:16.551Z,15.05
2019-06-10T17:22:21.314Z,15.03
2019-06-10T17:24:27.629Z,11.63
2019-06-10T17:26:37.455Z,13.85
2019-06-10T17:28:37.523Z,15.40
2019-06-10T17:30:42.645Z,16.85
2019-06-10T17:32:46.782Z,10.58
2019-06-10T17:34:52.614Z,14.93
2019-06-10T17:36:56.623Z,15.15
2019-06-10T17:39:02.935Z,15.35
2019-06-10T17:41:09.091Z,13.35
2019-06-10T17:43:13.212Z,10.55
2019-06-10T17:45:17.405Z,12.25
2019-06-10T17:47:23.969Z,11.88
2019-06-10T17:49:27.421Z,14.70
2019-06-10T17:51:35.560Z,13.98
2019-06-10T17:53:38.049Z,13.83
2019-06-10T17:55:42.142Z,15.63
2019-06-10T17:57:47.526Z,15.68
2019-06-10T17:59:52.440Z,13.55
2019-06-10T18:01:56.747Z,14.87
2019-06-10T18:04:02.551Z,12.90
2019-06-10T18:06:06.355Z,13.88
2019-06-10T18:08:12.936Z,14.58
2019-06-10T18:10:16.823Z,18.40
2019-06-10T18:12:22.269Z,14.15
2019-06-10T18:14:26.611Z,15.98
2019-06-10T18:16:30.519Z,16.77
2019-06-10T18:18:37.272Z,17.27
2019-06-10T18:20:46.333Z,13.75
2019-06-10T18:22:52.812Z,13.32
2019-06-10T18:24:56.138Z,16.75
2019-06-10T18:27:02.289Z,16.20
2019-06-10T18:29:12.836Z,12.90
2019-06-10T18:31:18.395Z,14.80
2019-06-10T18:33:22.742Z,14.00
2019-06-10T18:35:26.375Z,15.15
2019-06-10T18:37:32.773Z,13.13
2019-06-10T18:39:37.667Z,18.35
2019-06-10T18:41:42.273Z,14.58
2019-06-10T18:43:48.433Z,15.13
2019-06-10T18:45:57.396Z,14.03
2019-06-10T18:48:01.529Z,17.05
2019-06-10T18:50:09.900Z,13.68
2019-06-10T18:52:14.000Z,16.48
2019-06-10T18:54:18.319Z,12.25
2019-06-10T18:56:23.619Z,13.20
2019-06-10T18:58:27.854Z,15.38
2019-06-10T19:00:49.149Z,16.02
2019-06-10T19:02:38.603Z,12.55
2019-06-10T19:04:45.150Z,14.03
2019-06-10T19:06:49.191Z,16.42
2019-06-10T19:08:53.187Z,14.60
2019-06-10T19:10:57.203Z,14.63
2019-06-10T19:13:02.480Z,16.37
2019-06-10T19:15:12.706Z,11.97
2019-06-10T19:17:17.696Z,15.45
2019-06-10T19:19:22.912Z,17.95
2019-06-10T19:21:26.981Z,13.65
2019-06-10T19:23:33.421Z,15.43
2019-06-10T19:25:38.333Z,16.52
2019-06-10T19:27:44.298Z,20.90
2019-06-10T19:29:51.315Z,18.57
2019-06-10T19:31:53.004Z,18.48
2019-06-10T19:33:57.044Z,20.40
2019-06-10T19:36:03.627Z,13.32
2019-06-10T19:38:07.529Z,16.97
2019-06-10T19:40:14.739Z,15.75
2019-06-10T19:42:18.759Z,17.15
2019-06-10T19:44:23.406Z,21.48
2019-06-10T19:46:27.491Z,16.85
2019-06-10T19:48:33.669Z,19.32
2019-06-10T19:50:37.629Z,16.02
2019-06-10T19:52:45.704Z,15.90
2019-06-10T19:54:49.862Z,14.05
2019-06-10T19:56:53.894Z,14.58
2019-06-10T19:58:57.909Z,15.85
2019-06-10T20:01:04.640Z,13.28
2019-06-10T20:03:08.708Z,14.33
2019-06-10T20:05:12.931Z,16.93
2019-06-10T20:07:16.962Z,13.30
2019-06-10T20:09:22.658Z,14.00
2019-06-10T20:11:26.764Z,12.63
2019-06-10T20:13:32.509Z,15.63
2019-06-10T20:15:37.407Z,16.70
2019-06-10T20:17:42.171Z,19.67
2019-06-10T20:19:46.585Z,15.25
2019-06-10T20:21:50.764Z,18.35
2019-06-10T20:23:54.740Z,15.98
2019-06-10T20:25:58.584Z,20.32
2019-06-10T20:28:02.824Z,19.77
2019-06-10T20:30:24.125Z,17.85
2019-06-10T20:32:19.577Z,20.50
2019-06-10T20:34:25.739Z,20.15
2019-06-10T20:36:29.015Z,19.48
2019-06-10T20:38:32.904Z,19.95
2019-06-10T20:40:38.115Z,22.95
2019-06-10T20:42:42.316Z,19.60
2019-06-10T20:44:47.890Z,17.37
2019-06-10T20:46:52.873Z,15.50
2019-06-10T20:48:57.042Z,21.07
2019-06-10T20:51:02.957Z,20.32
2019-06-10T20:53:14.254Z,17.45
2019-06-10T20:55:13.158Z,17.50
2019-06-10T20:57:17.007Z,18.87
2019-06-10T20:59:25.485Z,17.32
2019-06-10T21:01:26.483Z,17.52
2019-06-10T21:03:32.334Z,17.87
2019-06-10T21:05:35.923Z,15.90
2019-06-10T21:07:43.767Z,16.00
2019-06-10T21:09:47.482Z,17.65
2019-06-10T21:11:55.378Z,17.85
2019-06-10T21:13:59.303Z,18.42
2019-06-10T21:16:03.951Z,16.48
2019-06-10T21:18:08.006Z,18.87
2019-06-10T21:20:12.115Z,18.00
2019-06-10T21:22:15.937Z,16.87
2019-06-10T21:24:19.880Z,23.50
2019-06-10T21:26:23.954Z,18.42
2019-06-10T21:28:28.071Z,18.20
2019-06-10T21:30:41.311Z,22.20
2019-06-10T21:32:37.543Z,17.65
2019-06-10T21:34:43.143Z,17.23
2019-06-10T21:36:47.424Z,21.33
2019-06-10T21:38:55.362Z,17.82
2019-06-10T21:41:03.260Z,19.05
2019-06-10T21:43:13.001Z,21.93
2019-06-10T21:45:18.973Z,20.15
2019-06-10T21:47:23.342Z,19.67
2019-06-10T21:49:27.546Z,20.02
2019-06-10T21:51:34.444Z,20.40
2019-06-10T21:53:37.065Z,20.20
2019-06-10T21:55:42.449Z,18.27
2019-06-10T21:57:47.167Z,20.72
2019-06-10T21:59:53.620Z,18.87
2019-06-10T22:01:56.685Z,18.50
2019-06-10T22:04:04.168Z,19.55
2019-06-10T22:06:06.145Z,20.65
2019-06-10T22:08:12.356Z,20.95
2019-06-10T22:10:18.450Z,19.45
2019-06-10T22:12:22.316Z,20.72
2019-06-10T22:14:26.269Z,19.48
2019-06-10T22:16:30.259Z,19.98
2019-06-10T22:18:34.090Z,18.27
2019-06-10T22:20:37.944Z,20.72
2019-06-10T22:22:42.914Z,21.07
2019-06-10T22:24:47.035Z,25.05
2019-06-10T22:26:51.079Z,20.57
2019-06-10T22:28:57.500Z,21.87
2019-06-10T22:31:17.886Z,18.52
2019-06-10T22:33:09.286Z,21.42
2019-06-10T22:35:13.344Z,21.50
2019-06-10T22:37:17.249Z,20.40
2019-06-10T22:39:22.691Z,19.67
2019-06-10T22:41:26.596Z,20.48
2019-06-10T22:43:32.150Z,18.90
2019-06-10T22:45:36.304Z,19.23
2019-06-10T22:47:43.153Z,20.43
2019-06-10T22:49:47.854Z,20.12
2019-06-10T22:51:54.822Z,20.02
2019-06-10T22:54:00.842Z,23.95
2019-06-10T22:56:04.893Z,20.48
2019-06-10T22:58:08.942Z,19.87
2019-06-10T23:00:13.604Z,21.23
2019-06-10T23:02:19.472Z,21.25
2019-06-10T23:04:23.361Z,20.23
2019-06-10T23:06:27.427Z,22.37
2019-06-10T23:08:34.126Z,22.45
2019-06-10T23:10:37.988Z,22.35
2019-06-10T23:12:43.043Z,23.45
2019-06-10T23:14:47.103Z,21.05
2019-06-10T23:16:53.559Z,21.10
2019-06-10T23:18:57.144Z,24.55
2019-06-10T23:21:04.465Z,21.80
2019-06-10T23:23:08.051Z,21.05
2019-06-10T23:25:12.700Z,21.07
2019-06-10T23:27:16.696Z,21.55
2019-06-10T23:29:22.637Z,21.73
2019-06-10T23:31:28.997Z,26.75
2019-06-10T23:33:33.104Z,26.15
2019-06-10T23:35:37.131Z,25.62
2019-06-10T23:37:42.654Z,22.45
2019-06-10T23:39:46.967Z,25.23
2019-06-10T23:41:53.219Z,24.43
2019-06-10T23:43:57.149Z,22.42
2019-06-10T23:46:04.090Z,23.05
2019-06-10T23:48:06.759Z,23.73
2019-06-10T23:50:12.908Z,26.87
2019-06-10T23:52:18.400Z,26.20
2019-06-10T23:54:22.915Z,24.37
2019-06-10T23:56:29.894Z,28.30
2019-06-10T23:58:33.828Z,23.92
